Time;durP1;ratioP1;P1;durP2;ratioP2;P2;SDS_P1;SDS_P2;PMS_P1;PMS_P2;Temp;Humidity;BMP_temperature;BMP_pressure;BME280_temperature;BME280_humidity;BME280_pressure;Samples;Min_cycle;Max_cycle;Signal;HPM_P1;HPM_P2
2022/06/01 00:00:56;;;;;;;0.88;0.80;;;10.30;99.90;;;;;;5095519;28;20065;-70
2022/06/01 00:03:24;;;;;;;0.70;0.60;;;10.30;99.90;;;;;;5114151;28;20051;-71
2022/06/01 00:05:51;;;;;;;0.82;0.80;;;10.30;99.90;;;;;;5107045;28;20062;-71
2022/06/01 00:08:17;;;;;;;1.20;0.85;;;10.30;99.90;;;;;;5113895;28;20043;-71
2022/06/01 00:10:42;;;;;;;1.30;0.85;;;10.30;99.90;;;;;;5113675;28;20130;-70
2022/06/01 00:13:08;;;;;;;0.70;0.70;;;10.40;99.90;;;;;;5109649;28;20266;-70
2022/06/01 00:15:34;;;;;;;1.20;0.85;;;10.30;99.90;;;;;;5085375;28;20048;-70
2022/06/01 00:18:00;;;;;;;1.17;0.90;;;10.40;99.90;;;;;;5109545;28;20051;-71
2022/06/01 00:20:27;;;;;;;1.15;0.90;;;10.40;99.90;;;;;;5087284;28;20039;-71
2022/06/01 00:22:53;;;;;;;0.98;0.80;;;10.40;99.90;;;;;;5098328;28;20448;-71
2022/06/01 00:25:19;;;;;;;2.15;1.48;;;10.50;99.90;;;;;;5081686;28;20084;-71
2022/06/01 00:27:44;;;;;;;2.70;1.98;;;10.60;99.90;;;;;;5113339;28;20044;-71
2022/06/01 00:30:14;;;;;;;2.50;1.90;;;10.60;99.90;;;;;;5113305;28;20067;-71
2022/06/01 00:32:40;;;;;;;2.75;2.42;;;10.50;99.90;;;;;;5108361;28;20127;-71
2022/06/01 00:35:07;;;;;;;3.40;2.50;;;10.50;99.90;;;;;;5075694;28;20067;-71
2022/06/01 00:37:33;;;;;;;2.88;2.40;;;10.40;99.90;;;;;;5095158;28;20052;-70
2022/06/01 00:39:58;;;;;;;3.88;2.40;;;10.40;99.90;;;;;;5112565;28;20342;-70
2022/06/01 00:42:27;;;;;;;2.20;1.73;;;10.30;99.90;;;;;;5112915;28;20051;-70
2022/06/01 00:44:53;;;;;;;1.30;1.20;;;10.30;99.90;;;;;;5099009;28;20057;-70
2022/06/01 00:47:20;;;;;;;;;;;10.30;99.90;;;;;;5111746;28;20047;-70
2022/06/01 00:49:56;;;;;;;1.38;1.27;;;10.30;99.90;;;;;;5112597;28;20367;-70
2022/06/01 00:52:38;;;;;;;1.25;1.00;;;10.30;99.90;;;;;;5101757;28;20044;-70
2022/06/01 00:55:06;;;;;;;1.02;0.90;;;10.30;99.90;;;;;;5101076;28;20482;-70
2022/06/01 00:57:33;;;;;;;0.95;0.80;;;10.30;99.90;;;;;;5104526;28;20047;-70
2022/06/01 01:00:04;;;;;;;0.70;0.70;;;10.30;99.90;;;;;;5112898;28;20383;-70
2022/06/01 01:02:30;;;;;;;1.00;0.90;;;10.30;99.90;;;;;;5112185;28;20044;-70
2022/06/01 01:04:56;;;;;;;1.52;1.30;;;10.30;99.90;;;;;;5110137;28;20487;-70
2022/06/01 01:07:26;;;;;;;1.23;1.00;;;10.40;99.90;;;;;;5103344;28;20031;-70
2022/06/01 01:09:52;;;;;;;1.50;1.13;;;10.30;99.90;;;;;;5113694;28;20074;-70
2022/06/01 01:12:18;;;;;;;;;;;10.30;99.90;;;;;;5095048;28;20039;-71
2022/06/01 01:14:45;;;;;;;1.20;1.08;;;10.30;99.90;;;;;;5105923;28;19916;-70
2022/06/01 01:17:12;;;;;;;1.55;1.13;;;10.40;99.90;;;;;;5112166;28;20121;-70
2022/06/01 01:19:48;;;;;;;0.80;0.80;;;10.30;99.90;;;;;;5112489;28;20051;-70
2022/06/01 01:22:50;;;;;;;1.08;0.98;;;10.30;99.90;;;;;;5108421;28;20040;-69
2022/06/01 01:25:21;;;;;;;1.00;0.90;;;10.40;99.90;;;;;;5099086;28;20048;-69
2022/06/01 01:27:51;;;;;;;1.08;0.98;;;10.30;99.90;;;;;;5102896;28;20044;-70
2022/06/01 01:30:39;;;;;;;0.70;0.70;;;10.30;99.90;;;;;;5113575;28;20402;-70
2022/06/01 01:33:09;;;;;;;;;;;10.30;99.90;;;;;;5108175;28;20051;-70
2022/06/01 01:35:35;;;;;;;1.27;1.10;;;10.30;99.90;;;;;;5111591;27;19915;-69
2022/06/01 01:38:02;;;;;;;;;;;10.20;99.90;;;;;;5109669;28;20044;-70
2022/06/01 01:40:28;;;;;;;0.98;0.90;;;10.20;99.90;;;;;;5112019;28;20370;-70
2022/06/01 01:42:55;;;;;;;0.90;0.80;;;10.30;99.90;;;;;;5110172;28;20126;-69
2022/06/01 01:45:26;;;;;;;1.10;0.80;;;10.20;99.90;;;;;;5109097;28;20068;-69
2022/06/01 01:47:52;;;;;;;1.80;1.08;;;10.10;99.90;;;;;;5093722;28;20550;-70
2022/06/01 01:50:19;;;;;;;;;;;10.10;99.90;;;;;;5112286;28;20047;-70
2022/06/01 01:52:46;;;;;;;1.15;1.05;;;10.10;99.90;;;;;;5111559;28;19923;-70
2022/06/01 01:55:15;;;;;;;1.27;1.10;;;10.10;99.90;;;;;;5108631;28;20047;-70
2022/06/01 01:57:59;;;;;;;1.60;1.10;;;10.10;99.90;;;;;;5112363;28;20486;-70
2022/06/01 02:00:27;;;;;;;1.20;0.98;;;10.20;99.90;;;;;;5108744;28;20039;-70
2022/06/01 02:03:09;;;;;;;1.30;1.00;;;10.10;99.90;;;;;;5100671;28;20031;-70
2022/06/01 02:06:04;;;;;;;1.35;1.00;;;10.20;99.90;;;;;;5095696;28;20086;-69
2022/06/01 02:08:39;;;;;;;1.88;1.65;;;10.10;99.90;;;;;;5090157;28;20052;-71
2022/06/01 02:14:19;;;;;;;1.90;1.40;;;10.20;99.90;;;;;;5090282;28;20510;-71
2022/06/01 02:16:53;;;;;;;1.95;1.27;;;10.20;99.90;;;;;;5091929;28;20052;-70
2022/06/01 02:19:23;;;;;;;1.30;1.20;;;10.20;99.90;;;;;;5090786;28;20055;-69
2022/06/01 02:21:51;;;;;;;2.03;1.50;;;10.20;99.90;;;;;;5091566;28;20054;-69
2022/06/01 02:24:18;;;;;;;3.72;3.08;;;10.20;99.90;;;;;;5091714;28;20075;-69
2022/06/01 02:26:46;;;;;;;4.80;4.18;;;10.30;99.90;;;;;;5104858;28;20044;-70
2022/06/01 02:29:21;;;;;;;3.88;3.45;;;10.20;99.90;;;;;;5097991;28;20035;-70
2022/06/01 02:31:48;;;;;;;3.80;2.50;;;10.20;99.90;;;;;;5112317;28;20517;-70
2022/06/01 02:34:15;;;;;;;3.20;2.63;;;10.20;99.90;;;;;;5108389;28;20044;-70
2022/06/01 02:36:43;;;;;;;;;;;10.20;99.90;;;;;;5104502;28;20462;-69
2022/06/01 02:39:10;;;;;;;2.28;2.08;;;10.20;99.90;;;;;;5106795;28;19999;-69
2022/06/01 02:44:20;;;;;;;1.50;1.40;;;10.30;99.90;;;;;;5110678;28;20039;-69
2022/06/01 02:46:46;;;;;;;2.03;1.50;;;10.30;99.90;;;;;;5101360;28;20392;-69
2022/06/01 02:49:12;;;;;;;1.70;1.55;;;10.30;99.90;;;;;;5112065;28;20080;-70
2022/06/01 02:51:38;;;;;;;1.83;1.48;;;10.20;99.90;;;;;;5110563;28;20075;-70
2022/06/01 02:54:04;;;;;;;1.90;1.70;;;10.30;99.90;;;;;;5110308;28;20085;-70
2022/06/01 02:56:29;;;;;;;2.30;2.10;;;10.20;99.90;;;;;;5101835;28;20052;-69
2022/06/01 02:58:56;;;;;;;1.75;1.60;;;10.30;99.90;;;;;;5088967;28;20096;-70
2022/06/01 03:01:22;;;;;;;2.40;2.20;;;10.30;99.90;;;;;;5104963;28;20085;-70
2022/06/01 03:03:48;;;;;;;;;;;10.20;99.90;;;;;;5110508;28;20051;-70
2022/06/01 03:06:14;;;;;;;2.90;2.40;;;10.20;99.90;;;;;;5110388;28;19920;-70
2022/06/01 03:08:40;;;;;;;2.55;1.75;;;10.30;99.90;;;;;;5109953;28;20040;-70
2022/06/01 03:11:07;;;;;;;1.60;1.50;;;10.20;99.90;;;;;;5105039;28;20039;-70
2022/06/01 03:13:33;;;;;;;3.17;2.00;;;10.20;99.90;;;;;;5110586;28;20050;-69
2022/06/01 03:15:58;;;;;;;2.53;1.80;;;10.10;99.90;;;;;;5110528;28;20039;-70
2022/06/01 03:18:24;;;;;;;2.78;2.40;;;10.20;99.90;;;;;;5109801;28;20055;-70
2022/06/01 03:20:50;;;;;;;2.80;2.35;;;10.20;99.90;;;;;;5071878;28;20041;-69
2022/06/01 03:23:16;;;;;;;2.40;2.20;;;10.20;99.90;;;;;;5098624;28;20088;-69
2022/06/01 03:25:42;;;;;;;4.03;3.15;;;10.20;99.90;;;;;;5110502;28;20448;-69
2022/06/01 03:28:07;;;;;;;3.13;2.75;;;10.10;99.90;;;;;;5106442;28;20539;-69
2022/06/01 03:30:34;;;;;;;3.00;2.70;;;10.20;99.90;;;;;;5104617;28;20039;-69
2022/06/01 03:32:59;;;;;;;;;;;10.20;99.90;;;;;;5099670;28;20058;-69
2022/06/01 03:35:29;;;;;;;2.92;2.30;;;10.20;99.90;;;;;;5109102;28;19919;-69
2022/06/01 03:37:57;;;;;;;2.30;2.10;;;10.10;99.90;;;;;;5109796;28;20038;-69
2022/06/01 03:40:25;;;;;;;2.83;2.22;;;10.10;99.90;;;;;;5092945;28;20059;-69
2022/06/01 03:42:51;;;;;;;2.17;1.90;;;10.10;99.90;;;;;;5095726;28;20047;-69
2022/06/01 03:45:59;;;;;;;2.10;1.70;;;10.10;99.90;;;;;;5109871;28;20104;-69
2022/06/01 03:48:08;;;;;;;1.70;1.60;;;10.10;99.90;;;;;;5103449;28;20104;-69
2022/06/01 03:50:35;;;;;;;2.08;1.60;;;10.10;99.90;;;;;;5109964;28;20052;-70
2022/06/01 03:53:05;;;;;;;1.85;1.52;;;10.10;99.90;;;;;;5097421;28;20044;-70
2022/06/01 03:55:31;;;;;;;2.00;1.80;;;10.10;99.90;;;;;;5099166;28;20351;-70
2022/06/01 03:57:56;;;;;;;2.50;1.90;;;10.20;99.90;;;;;;5109010;28;20040;-70
2022/06/01 04:00:25;;;;;;;2.53;2.03;;;10.20;99.90;;;;;;5107823;28;20509;-69
2022/06/01 04:02:51;;;;;;;2.35;1.88;;;10.30;99.90;;;;;;5102657;28;20075;-69
2022/06/01 04:05:20;;;;;;;2.30;2.08;;;10.30;99.90;;;;;;5072035;28;20109;-70
2022/06/01 04:07:45;;;;;;;2.42;2.00;;;10.30;99.90;;;;;;5088537;28;20040;-69
2022/06/01 04:10:11;;;;;;;2.30;1.90;;;10.30;99.90;;;;;;5090761;28;20040;-69
2022/06/01 04:12:37;;;;;;;2.60;2.20;;;10.40;99.90;;;;;;5090324;28;20150;-69
2022/06/01 04:15:05;;;;;;;4.15;1.80;;;10.40;99.90;;;;;;5097153;28;20040;-69
2022/06/01 04:17:31;;;;;;;1.95;1.80;;;10.50;99.90;;;;;;5090214;28;20052;-69
2022/06/01 04:19:58;;;;;;;1.88;1.65;;;10.50;99.90;;;;;;5092107;28;20071;-69
2022/06/01 04:22:24;;;;;;;1.67;1.25;;;10.50;99.90;;;;;;5095762;28;20094;-69
2022/06/01 04:24:49;;;;;;;1.50;1.40;;;10.50;99.90;;;;;;5102192;28;20071;-69
2022/06/01 04:27:16;;;;;;;2.15;1.38;;;10.50;99.90;;;;;;5112751;28;20044;-69
2022/06/01 04:29:41;;;;;;;1.38;1.20;;;10.60;99.90;;;;;;5110334;28;20055;-69
2022/06/01 04:32:12;;;;;;;1.30;1.17;;;10.60;99.90;;;;;;5094947;28;20463;-70
2022/06/01 04:34:38;;;;;;;1.40;1.30;;;10.60;99.90;;;;;;5112945;28;20398;-70
2022/06/01 04:37:04;;;;;;;1.13;1.02;;;10.60;99.90;;;;;;5114439;27;20119;-69
2022/06/01 04:39:30;;;;;;;1.67;1.50;;;10.70;99.90;;;;;;5113762;27;20078;-70
2022/06/01 04:41:56;;;;;;;1.65;1.35;;;10.70;99.90;;;;;;5101602;28;20048;-69
2022/06/01 04:44:23;;;;;;;2.75;1.45;;;10.60;99.90;;;;;;5112185;28;20047;-70
2022/06/01 04:46:49;;;;;;;1.70;1.60;;;10.70;99.90;;;;;;5099145;28;20364;-70
2022/06/01 04:49:14;;;;;;;2.80;2.35;;;10.80;99.90;;;;;;5106296;28;20036;-69
2022/06/01 04:51:41;;;;;;;2.20;2.00;;;10.80;99.90;;;;;;5112265;28;20055;-70
2022/06/01 04:54:07;;;;;;;;;;;10.70;99.90;;;;;;5108956;28;20043;-70
2022/06/01 04:56:33;;;;;;;1.60;1.50;;;10.90;99.90;;;;;;5107636;28;19925;-70
2022/06/01 04:58:59;;;;;;;1.50;1.40;;;10.90;99.90;;;;;;5099284;28;20126;-70
2022/06/01 05:01:25;;;;;;;1.90;1.70;;;10.90;99.90;;;;;;5112329;28;20566;-70
2022/06/01 05:03:51;;;;;;;1.92;1.60;;;11.00;99.90;;;;;;5105833;28;20126;-70
2022/06/01 05:06:17;;;;;;;1.67;1.40;;;11.10;99.90;;;;;;5099423;28;20429;-70
2022/06/01 05:08:42;;;;;;;1.85;1.63;;;11.10;99.90;;;;;;5093172;28;20052;-70
2022/06/01 05:11:08;;;;;;;1.92;1.25;;;11.10;99.90;;;;;;5095011;28;20455;-70
2022/06/01 05:13:34;;;;;;;1.60;1.50;;;11.20;99.90;;;;;;5099734;28;20116;-70
2022/06/01 05:16:02;;;;;;;1.73;1.63;;;11.20;99.90;;;;;;5097667;28;20039;-70
2022/06/01 05:18:28;;;;;;;1.65;1.55;;;11.20;99.90;;;;;;5092234;28;20060;-70
2022/06/01 05:20:54;;;;;;;1.88;1.70;;;11.10;99.90;;;;;;5099263;28;20051;-69
2022/06/01 05:23:21;;;;;;;2.35;1.70;;;11.10;99.90;;;;;;5102764;28;20086;-70
2022/06/01 05:25:49;;;;;;;1.60;1.50;;;11.00;99.90;;;;;;5090807;28;20044;-70
2022/06/01 05:28:22;;;;;;;2.30;1.90;;;11.00;99.90;;;;;;5098044;28;20067;-70
2022/06/01 05:30:48;;;;;;;2.38;2.08;;;10.90;99.90;;;;;;5095521;28;20058;-70
2022/06/01 05:33:14;;;;;;;3.03;2.72;;;10.90;99.90;;;;;;5093531;28;21604;-70
2022/06/01 05:35:40;;;;;;;2.55;2.30;;;11.00;99.90;;;;;;5101625;28;20433;-70
2022/06/01 05:38:06;;;;;;;4.43;3.85;;;11.10;99.90;;;;;;5094364;28;20032;-70
2022/06/01 05:40:31;;;;;;;3.97;3.20;;;11.20;99.90;;;;;;5102875;28;20036;-70
2022/06/01 05:42:58;;;;;;;3.10;2.80;;;11.40;99.90;;;;;;5093365;28;20062;-70
2022/06/01 05:45:24;;;;;;;2.55;2.15;;;11.50;99.90;;;;;;5092571;28;20044;-70
2022/06/01 05:47:50;;;;;;;3.33;2.85;;;11.70;99.90;;;;;;5095560;28;20559;-70
2022/06/01 05:50:16;;;;;;;3.13;2.67;;;11.80;99.90;;;;;;5092290;28;20067;-69
2022/06/01 05:52:41;;;;;;;4.03;3.63;;;11.80;99.90;;;;;;5090735;28;20115;-71
2022/06/01 05:55:09;;;;;;;6.15;4.28;;;11.90;99.90;;;;;;5098157;28;20039;-71
2022/06/01 05:57:35;;;;;;;3.10;2.80;;;12.10;99.90;;;;;;5093196;28;20048;-71
2022/06/01 06:00:07;;;;;;;4.85;3.47;;;12.20;99.90;;;;;;5095027;28;20161;-71
2022/06/01 06:02:33;;;;;;;3.10;2.63;;;12.40;99.90;;;;;;5097048;28;20040;-71
2022/06/01 06:04:58;;;;;;;4.38;3.08;;;12.60;99.90;;;;;;5097823;28;20042;-71
2022/06/01 06:07:24;;;;;;;4.53;3.78;;;12.70;99.90;;;;;;5096432;28;20063;-71
2022/06/01 06:09:50;;;;;;;3.30;3.00;;;12.90;99.90;;;;;;5091549;28;20044;-70
2022/06/01 06:12:16;;;;;;;5.63;4.82;;;13.20;99.90;;;;;;5098496;28;20097;-70
2022/06/01 06:14:41;;;;;;;6.15;4.68;;;13.70;99.90;;;;;;5092178;28;20547;-70
2022/06/01 06:17:07;;;;;;;4.78;3.83;;;14.30;99.90;;;;;;5094613;28;20445;-70
2022/06/01 06:19:33;;;;;;;4.53;3.80;;;14.90;99.90;;;;;;5094953;28;20529;-70
2022/06/01 06:21:59;;;;;;;5.68;5.15;;;15.40;99.90;;;;;;5073094;28;20234;-73
2022/06/01 06:24:25;;;;;;;5.32;4.57;;;15.60;99.90;;;;;;5093328;28;20053;-71
2022/06/01 06:26:50;;;;;;;4.95;4.45;;;15.40;99.90;;;;;;5099000;28;20459;-71
2022/06/01 06:29:18;;;;;;;5.07;4.57;;;15.10;99.90;;;;;;5097621;27;20105;-71
2022/06/01 06:31:43;;;;;;;5.45;4.75;;;14.80;99.90;;;;;;5095824;28;20043;-70
2022/06/01 06:34:09;;;;;;;5.82;5.05;;;14.40;99.90;;;;;;5098447;28;20506;-71
2022/06/01 06:36:35;;;;;;;5.25;4.75;;;14.00;99.90;;;;;;5083649;28;20395;-71
2022/06/01 06:39:02;;;;;;;3.60;2.83;;;13.40;99.90;;;;;;5097736;28;20123;-71
2022/06/01 06:41:28;;;;;;;3.40;2.30;;;12.70;99.90;;;;;;5094257;28;20043;-71
2022/06/01 06:43:53;;;;;;;3.03;2.30;;;12.10;99.90;;;;;;5095013;28;20093;-72
2022/06/01 06:46:22;;;;;;;5.97;3.03;;;11.70;99.90;;;;;;5108038;28;20056;-72
2022/06/01 06:48:49;;;;;;;2.42;2.20;;;11.40;99.90;;;;;;5101588;28;20062;-72
2022/06/01 06:51:16;;;;;;;1.60;1.40;;;11.10;99.90;;;;;;5094846;28;20123;-72
2022/06/01 06:53:42;;;;;;;2.65;1.40;;;11.20;99.90;;;;;;5085710;28;20044;-72
2022/06/01 06:56:12;;;;;;;2.88;1.70;;;11.00;99.90;;;;;;5095842;28;20042;-72
2022/06/01 06:58:38;;;;;;;2.53;1.20;;;11.00;99.90;;;;;;5084676;28;20675;-72
2022/06/01 07:01:04;;;;;;;1.23;1.10;;;11.00;99.90;;;;;;5101718;28;20039;-72
2022/06/01 07:03:30;;;;;;;1.60;1.20;;;11.00;99.90;;;;;;5094567;28;20052;-73
2022/06/01 07:06:17;;;;;;;0.95;0.70;;;11.10;99.90;;;;;;5102881;28;20563;-73
2022/06/01 07:08:46;;;;;;;1.40;1.17;;;11.10;99.90;;;;;;5094677;28;20043;-73
2022/06/01 07:11:14;;;;;;;3.47;2.10;;;11.00;99.90;;;;;;5101972;28;20069;-73
2022/06/01 07:13:39;;;;;;;2.70;2.20;;;11.00;99.90;;;;;;5099709;28;20047;-73
2022/06/01 07:16:15;;;;;;;3.22;2.92;;;11.20;99.90;;;;;;5100740;28;20073;-73
2022/06/01 07:18:45;;;;;;;2.17;1.97;;;11.20;99.90;;;;;;5091533;28;20055;-73
2022/06/01 07:21:11;;;;;;;1.90;1.73;;;11.20;99.90;;;;;;5104483;28;20523;-73
2022/06/01 07:23:38;;;;;;;1.20;1.10;;;11.40;99.90;;;;;;5106485;28;20058;-73
2022/06/01 07:26:06;;;;;;;1.30;1.02;;;11.60;99.90;;;;;;5106321;28;20522;-73
2022/06/01 07:28:32;;;;;;;2.67;1.40;;;11.70;99.90;;;;;;5103366;28;20110;-73
2022/06/01 07:30:58;;;;;;;2.75;2.20;;;11.80;99.90;;;;;;5092796;28;20032;-73
2022/06/01 07:33:28;;;;;;;1.70;1.60;;;11.90;99.90;;;;;;5110269;28;20165;-73
2022/06/01 07:35:55;;;;;;;2.28;1.80;;;12.10;99.90;;;;;;5110543;28;20105;-73
2022/06/01 07:43:56;;;;;;;2.00;1.80;;;12.30;99.90;;;;;;5097937;28;20109;-72
2022/06/01 07:46:21;;;;;;;2.25;1.50;;;12.40;99.90;;;;;;5081393;28;20032;-73
2022/06/01 07:48:49;;;;;;;1.83;1.30;;;12.50;99.90;;;;;;5103403;28;20031;-72
2022/06/01 07:51:16;;;;;;;1.27;1.17;;;12.90;99.90;;;;;;5094376;28;20044;-72
2022/06/01 07:53:41;;;;;;;;;;;13.20;99.90;;;;;;5076158;28;20040;-72
2022/06/01 07:56:07;;;;;;;1.90;1.33;;;13.60;99.90;;;;;;5097818;28;19953;-72
2022/06/01 07:58:34;;;;;;;1.40;1.30;;;14.00;99.90;;;;;;5106285;28;20047;-72
2022/06/01 08:00:59;;;;;;;3.10;2.10;;;14.50;99.90;;;;;;5097322;28;20042;-72
2022/06/01 08:03:25;;;;;;;2.00;1.75;;;14.50;99.90;;;;;;5103822;28;20040;-72
2022/06/01 08:05:53;;;;;;;2.28;2.08;;;14.70;99.90;;;;;;5097770;28;20068;-71
2022/06/01 08:08:18;;;;;;;3.60;3.03;;;14.80;99.90;;;;;;5097823;28;20066;-72
2022/06/01 08:10:44;;;;;;;2.22;2.03;;;14.30;99.90;;;;;;5098990;28;20075;-72
2022/06/01 08:13:12;;;;;;;1.88;1.52;;;14.60;99.90;;;;;;5100227;28;20509;-72
2022/06/01 08:15:40;;;;;;;2.50;2.13;;;14.80;99.90;;;;;;5094744;28;20145;-71
2022/06/01 08:18:06;;;;;;;1.48;1.33;;;14.70;99.90;;;;;;5101654;28;20093;-71
2022/06/01 08:20:32;;;;;;;;;;;15.10;99.90;;;;;;5094531;28;20044;-72
2022/06/01 08:22:59;;;;;;;1.92;1.58;;;15.50;99.90;;;;;;5098883;28;19916;-70
2022/06/01 08:25:25;;;;;;;2.28;1.70;;;15.50;99.90;;;;;;5111283;28;20043;-69
2022/06/01 08:27:50;;;;;;;2.28;1.70;;;15.50;99.90;;;;;;5095092;28;20108;-71
2022/06/01 08:30:19;;;;;;;2.00;1.80;;;15.40;99.90;;;;;;5108512;28;20043;-72
2022/06/01 08:32:45;;;;;;;1.70;1.38;;;15.10;99.90;;;;;;5101397;28;20055;-71
2022/06/01 08:35:13;;;;;;;1.92;1.40;;;15.00;99.90;;;;;;5108293;28;20040;-72
2022/06/01 08:37:39;;;;;;;2.50;2.30;;;15.00;99.90;;;;;;5098642;28;20036;-71
2022/06/01 08:40:06;;;;;;;3.28;2.78;;;14.90;99.90;;;;;;5115328;27;20046;-72
2022/06/01 08:42:33;;;;;;;2.33;2.13;;;14.60;99.90;;;;;;5111147;28;20429;-72
2022/06/01 08:45:07;;;;;;;2.55;2.35;;;14.60;99.90;;;;;;5111438;28;20119;-72
2022/06/01 08:47:37;;;;;;;2.55;2.30;;;14.50;99.90;;;;;;5112902;28;20039;-72
2022/06/01 08:50:13;;;;;;;2.20;2.00;;;14.50;99.90;;;;;;5109578;28;20040;-72
2022/06/01 08:52:39;;;;;;;4.43;2.00;;;14.60;99.90;;;;;;5110852;28;20534;-72
2022/06/01 08:55:05;;;;;;;2.28;1.70;;;14.50;99.90;;;;;;5112578;28;20161;-72
2022/06/01 08:57:59;;;;;;;2.60;2.33;;;14.70;99.90;;;;;;5111750;28;20072;-72
2022/06/01 09:00:30;;;;;;;3.58;3.20;;;14.40;99.90;;;;;;5109876;28;20963;-72
2022/06/01 09:03:08;;;;;;;2.97;2.70;;;14.10;99.90;;;;;;5107134;28;20035;-72
2022/06/01 09:05:52;;;;;;;2.65;2.35;;;14.20;99.90;;;;;;5099597;28;20043;-72
2022/06/01 09:08:36;;;;;;;1.95;1.80;;;14.20;99.90;;;;;;5098166;28;20083;-72
2022/06/01 09:11:13;;;;;;;1.45;1.20;;;14.20;99.90;;;;;;5103749;28;20090;-72
2022/06/01 09:14:02;;;;;;;2.85;2.65;;;14.40;99.90;;;;;;5097827;28;20052;-71
2022/06/01 09:16:31;;;;;;;2.17;1.73;;;14.20;99.90;;;;;;5095070;28;20125;-71
2022/06/01 09:18:58;;;;;;;1.80;1.55;;;14.50;99.90;;;;;;5098785;28;20059;-71
2022/06/01 09:24:28;;;;;;;1.40;1.30;;;15.80;99.90;;;;;;5096659;28;20066;-73
2022/06/01 09:26:57;;;;;;;2.10;1.80;;;16.70;99.90;;;;;;5100679;28;20099;-71
2022/06/01 09:29:27;;;;;;;1.85;1.70;;;17.10;99.90;;;;;;5112527;28;20035;-72
2022/06/01 09:32:06;;;;;;;1.48;1.30;;;17.10;99.90;;;;;;5111740;28;20077;-71
2022/06/01 09:34:46;;;;;;;1.30;1.20;;;16.70;99.90;;;;;;5095300;28;20534;-70
2022/06/01 09:37:21;;;;;;;1.90;1.40;;;16.50;99.90;;;;;;5111246;28;20079;-70
2022/06/01 09:39:59;;;;;;;1.00;0.90;;;16.20;99.90;;;;;;5101249;28;20035;-71
2022/06/01 09:42:35;;;;;;;1.60;1.50;;;16.10;99.90;;;;;;5113304;28;20456;-71
2022/06/01 09:45:12;;;;;;;1.70;1.50;;;15.80;99.90;;;;;;5112113;28;20455;-71
2022/06/01 09:47:42;;;;;;;2.90;2.15;;;15.60;99.90;;;;;;5107176;28;20040;-71
2022/06/01 09:50:30;;;;;;;2.85;2.50;;;15.20;99.90;;;;;;5101825;28;20554;-72
2022/06/01 09:53:20;;;;;;;1.90;1.67;;;14.90;99.90;;;;;;5105201;28;20048;-71
2022/06/01 09:56:04;;;;;;;1.20;1.10;;;14.80;99.90;;;;;;5106780;28;20077;-71
2022/06/01 10:07:22;;;;;;;1.52;1.42;;;15.20;99.90;;;;;;5101147;28;20120;-71
2022/06/01 10:09:51;;;;;;;1.23;1.13;;;15.30;99.90;;;;;;5111116;28;20116;-71
2022/06/01 10:12:37;;;;;;;1.10;0.90;;;15.70;99.90;;;;;;5100227;28;20055;-71
2022/06/01 10:15:11;;;;;;;1.20;1.10;;;16.50;99.90;;;;;;5092854;28;20051;-70
2022/06/01 10:17:51;;;;;;;1.00;0.90;;;16.60;99.90;;;;;;5101910;28;20060;-71
2022/06/01 10:20:30;;;;;;;0.75;0.70;;;17.30;99.90;;;;;;5106692;27;20484;-71
2022/06/01 10:23:02;;;;;;;1.23;0.88;;;17.60;99.90;;;;;;5094963;28;20049;-71
2022/06/01 10:25:51;;;;;;;1.60;0.90;;;18.20;99.90;;;;;;5108498;28;20050;-71
2022/06/01 10:28:41;;;;;;;1.23;1.13;;;18.10;98.80;;;;;;5096019;28;20032;-71
2022/06/01 10:31:25;;;;;;;1.10;0.80;;;17.40;99.50;;;;;;5090580;28;20083;-70
2022/06/01 10:34:28;;;;;;;0.68;0.68;;;17.10;99.90;;;;;;5108578;28;20063;-71
2022/06/01 10:37:06;;;;;;;0.90;0.70;;;17.10;99.90;;;;;;5109992;28;20550;-71
2022/06/01 10:39:47;;;;;;;1.40;1.00;;;16.40;98.20;;;;;;5089498;28;20077;-71
2022/06/01 10:43:16;;;;;;;0.95;0.80;;;15.80;99.40;;;;;;5105489;28;20036;-71
2022/06/01 10:45:14;;;;;;;1.20;0.82;;;15.60;99.90;;;;;;5098559;28;20032;-71
2022/06/01 10:48:00;;;;;;;0.70;0.70;;;15.50;99.90;;;;;;5088601;28;20522;-71
2022/06/01 10:50:37;;;;;;;1.30;0.90;;;15.50;99.90;;;;;;5090023;28;20072;-71
2022/06/01 10:53:13;;;;;;;1.38;1.00;;;15.10;99.90;;;;;;5108355;28;20047;-71
2022/06/01 10:55:43;;;;;;;1.20;1.08;;;15.10;99.90;;;;;;5110063;28;20118;-71
2022/06/01 10:58:16;;;;;;;1.00;0.90;;;15.00;99.90;;;;;;5090556;28;20506;-71
2022/06/01 11:00:50;;;;;;;0.70;0.70;;;14.80;99.90;;;;;;5103776;28;20035;-70
2022/06/01 11:03:46;;;;;;;2.17;0.80;;;14.60;99.90;;;;;;5089222;28;20110;-70
2022/06/01 11:07:02;;;;;;;1.25;1.00;;;14.60;99.90;;;;;;5075240;28;20057;-70
2022/06/01 11:09:34;;;;;;;1.42;1.20;;;14.40;99.90;;;;;;5110141;28;20538;-71
2022/06/01 11:12:27;;;;;;;2.45;1.30;;;14.20;99.90;;;;;;5101140;28;20043;-71
2022/06/01 11:14:56;;;;;;;1.30;1.10;;;14.00;99.90;;;;;;5104165;28;20036;-71
2022/06/01 11:17:44;;;;;;;1.38;1.27;;;13.90;99.90;;;;;;5089679;28;20506;-71
2022/06/01 11:20:35;;;;;;;1.63;1.48;;;13.70;99.90;;;;;;5109939;28;20471;-71
2022/06/01 11:23:22;;;;;;;0.77;0.77;;;13.40;99.90;;;;;;5110056;28;20050;-71
2022/06/01 11:26:12;;;;;;;2.45;1.33;;;13.50;99.90;;;;;;5097621;28;20040;-71
2022/06/01 11:29:02;;;;;;;1.10;1.00;;;13.70;99.90;;;;;;5108580;28;20498;-72
2022/06/01 11:31:29;;;;;;;1.50;1.30;;;14.50;99.90;;;;;;5100223;28;20088;-72
2022/06/01 11:34:12;;;;;;;1.90;1.20;;;14.60;99.90;;;;;;5106189;28;20048;-72
2022/06/01 11:37:03;;;;;;;1.92;1.40;;;14.90;99.90;;;;;;5091015;28;20480;-72
2022/06/01 11:39:42;;;;;;;1.70;1.20;;;14.80;99.90;;;;;;5096518;28;20543;-71
2022/06/01 11:42:32;;;;;;;1.35;0.90;;;14.90;99.90;;;;;;5108844;28;20052;-71
2022/06/01 11:45:04;;;;;;;1.30;1.17;;;15.10;99.90;;;;;;5109800;28;20044;-72
2022/06/01 11:47:36;;;;;;;0.80;0.80;;;15.00;99.90;;;;;;5106080;28;20124;-71
2022/06/01 11:50:37;;;;;;;1.10;1.00;;;15.20;99.90;;;;;;5099116;28;20114;-71
2022/06/01 11:53:11;;;;;;;0.80;0.80;;;15.10;99.90;;;;;;5054476;28;20055;-72
2022/06/01 11:55:37;;;;;;;0.73;0.60;;;15.30;99.90;;;;;;5088814;28;20087;-71
2022/06/01 11:58:09;;;;;;;0.70;0.70;;;15.50;99.90;;;;;;5089819;28;20078;-71
2022/06/01 12:00:51;;;;;;;1.20;1.10;;;15.90;99.90;;;;;;5090410;28;20044;-71
2022/06/01 12:03:17;;;;;;;1.52;1.33;;;15.80;99.90;;;;;;5089799;28;20040;-71
2022/06/01 12:06:11;;;;;;;1.58;1.20;;;15.70;99.90;;;;;;5090521;28;20114;-71
2022/06/01 12:08:50;;;;;;;3.75;1.90;;;15.80;99.90;;;;;;5089244;28;20040;-72
2022/06/01 12:11:42;;;;;;;2.17;1.50;;;15.40;99.90;;;;;;5089237;28;20040;-71
2022/06/01 12:14:29;;;;;;;1.40;1.30;;;15.50;99.90;;;;;;5089076;28;20048;-71
2022/06/01 12:17:20;;;;;;;1.80;1.40;;;15.90;99.90;;;;;;5097104;28;20043;-71
2022/06/01 12:19:48;;;;;;;1.75;1.30;;;16.20;99.90;;;;;;5092235;28;20099;-71
2022/06/01 12:28:31;;;;;;;1.35;1.10;;;15.70;99.90;;;;;;5103555;28;20055;-71
2022/06/01 12:31:13;;;;;;;2.50;1.40;;;15.80;99.90;;;;;;5084765;28;20114;-72
2022/06/01 12:34:16;;;;;;;1.63;1.33;;;15.50;99.90;;;;;;5105532;28;20043;-71
2022/06/01 12:37:06;;;;;;;3.05;1.80;;;15.20;99.90;;;;;;5092672;28;20122;-71
2022/06/01 12:39:34;;;;;;;1.70;1.50;;;15.10;99.90;;;;;;5072283;28;20044;-71
2022/06/01 12:42:18;;;;;;;1.85;1.70;;;15.00;99.90;;;;;;5104405;28;20039;-71
2022/06/01 12:44:49;;;;;;;1.85;1.30;;;14.70;99.90;;;;;;5114195;28;20083;-71
2022/06/01 12:47:33;;;;;;;1.73;0.95;;;14.70;99.90;;;;;;5098649;28;20050;-71
2022/06/01 12:50:13;;;;;;;1.20;1.00;;;14.60;99.90;;;;;;5114354;28;20096;-71
2022/06/01 12:52:39;;;;;;;0.60;0.60;;;14.50;99.90;;;;;;5096605;28;20051;-71
2022/06/01 12:55:09;;;;;;;0.40;0.40;;;14.40;99.90;;;;;;5085165;28;20043;-70
2022/06/01 12:57:41;;;;;;;0.90;0.50;;;14.30;99.90;;;;;;5111011;28;20047;-71
2022/06/01 13:00:19;;;;;;;0.90;0.40;;;14.10;99.90;;;;;;5093879;28;20560;-71
2022/06/01 13:02:45;;;;;;;1.08;0.55;;;13.90;99.90;;;;;;5089402;28;20479;-71
2022/06/01 13:05:13;;;;;;;;;;;13.70;99.90;;;;;;5101481;28;20046;-71
2022/06/01 13:07:42;;;;;;;1.17;0.75;;;13.50;99.90;;;;;;5081167;28;19927;-71
2022/06/01 13:10:11;;;;;;;0.70;0.60;;;13.50;99.90;;;;;;5095570;28;20043;-71
2022/06/01 13:12:37;;;;;;;0.63;0.63;;;13.40;99.90;;;;;;5112702;28;20036;-71
2022/06/01 13:15:11;;;;;;;0.90;0.80;;;13.40;99.90;;;;;;5098018;28;20043;-71
2022/06/01 13:17:56;;;;;;;0.70;0.70;;;13.40;99.90;;;;;;5112229;28;20051;-71
2022/06/01 13:20:55;;;;;;;1.38;0.70;;;13.30;99.90;;;;;;5102258;28;20036;-70
2022/06/01 13:23:31;;;;;;;1.60;0.80;;;13.10;99.90;;;;;;5113417;28;20071;-70
2022/06/01 13:26:02;;;;;;;1.50;0.88;;;13.20;99.90;;;;;;5099347;28;20044;-71
2022/06/01 13:28:28;;;;;;;1.00;0.70;;;13.00;99.90;;;;;;5094903;28;20055;-71
2022/06/01 13:30:56;;;;;;;2.05;0.98;;;13.00;99.90;;;;;;5095566;28;20452;-71
2022/06/01 13:33:38;;;;;;;1.10;0.80;;;13.10;99.90;;;;;;5113267;28;20130;-71
2022/06/01 13:36:07;;;;;;;0.77;0.77;;;13.30;99.90;;;;;;5112184;28;20040;-72
2022/06/01 13:38:49;;;;;;;0.95;0.80;;;13.60;99.90;;;;;;5086748;28;20044;-72
2022/06/01 13:41:37;;;;;;;1.40;1.00;;;13.90;99.90;;;;;;5098636;27;20475;-74